Time;durP1;ratioP1;P1;durP2;ratioP2;P2;SDS_P1;SDS_P2;PMS_P1;PMS_P2;Temp;Humidity;BMP_temperature;BMP_pressure;BME280_temperature;BME280_humidity;BME280_pressure;Samples;Min_cycle;Max_cycle;Signal;HPM_P1;HPM_P2
2024/03/28 00:00:20;;;;;;;8.23;4.55;;;10.50;99.90;;;;;;4972832;28;20023;-79
2024/03/28 00:02:46;;;;;;;11.27;4.90;;;10.50;99.90;;;;;;4972014;28;20042;-79
2024/03/28 00:05:12;;;;;;;8.90;4.70;;;10.50;99.90;;;;;;4972600;28;20031;-79
2024/03/28 00:07:37;;;;;;;5.43;4.20;;;10.50;99.90;;;;;;4973067;28;20392;-79
2024/03/28 00:10:03;;;;;;;11.25;5.28;;;10.60;99.90;;;;;;4970779;28;20396;-79
2024/03/28 00:12:29;;;;;;;7.82;4.60;;;10.60;99.90;;;;;;4971821;28;20027;-80
2024/03/28 00:14:55;;;;;;;9.30;5.45;;;10.60;99.90;;;;;;4971535;28;20015;-79
2024/03/28 00:17:20;;;;;;;9.25;5.18;;;10.50;99.90;;;;;;4971805;28;20049;-79
2024/03/28 00:19:46;;;;;;;8.68;4.80;;;10.50;99.90;;;;;;4972608;28;20054;-79
2024/03/28 00:22:12;;;;;;;9.18;5.10;;;10.50;99.90;;;;;;4971231;28;20135;-79
2024/03/28 00:24:37;;;;;;;10.40;6.05;;;10.50;99.90;;;;;;4972976;28;20058;-79
2024/03/28 00:27:03;;;;;;;8.48;4.75;;;10.40;99.90;;;;;;4971235;28;20510;-79
2024/03/28 00:29:29;;;;;;;10.90;5.18;;;10.50;99.90;;;;;;4971688;28;20030;-78
2024/03/28 00:31:54;;;;;;;8.95;4.63;;;10.50;99.90;;;;;;4970068;28;20446;-79
2024/03/28 00:34:20;;;;;;;8.70;4.50;;;10.50;99.90;;;;;;4969861;28;20466;-79
2024/03/28 00:36:45;;;;;;;9.10;4.80;;;10.50;99.90;;;;;;4972184;28;20077;-79
2024/03/28 00:39:11;;;;;;;6.65;4.25;;;10.50;99.90;;;;;;4971284;28;20035;-80
2024/03/28 00:41:37;;;;;;;12.15;4.85;;;10.60;99.90;;;;;;4968297;28;20031;-79
2024/03/28 00:44:02;;;;;;;9.65;4.25;;;10.60;99.90;;;;;;4970718;28;20034;-79
2024/03/28 00:46:28;;;;;;;10.10;4.18;;;10.70;99.90;;;;;;4971206;28;20031;-80
2024/03/28 00:48:54;;;;;;;9.77;4.43;;;10.70;99.90;;;;;;4971226;28;20472;-79
2024/03/28 00:51:19;;;;;;;8.45;4.93;;;10.70;99.90;;;;;;4969835;28;20468;-79
2024/03/28 00:53:45;;;;;;;9.50;4.85;;;10.70;99.90;;;;;;4972384;28;20077;-79
2024/03/28 00:56:10;;;;;;;9.38;4.43;;;10.70;99.90;;;;;;4971031;28;20477;-79
2024/03/28 00:58:36;;;;;;;7.15;3.83;;;10.80;99.90;;;;;;4971128;28;20113;-79
2024/03/28 01:01:03;;;;;;;10.88;4.25;;;10.80;99.90;;;;;;4970918;28;20179;-79
2024/03/28 01:03:29;;;;;;;6.57;3.70;;;10.90;99.90;;;;;;4971375;28;20058;-79
2024/03/28 01:06:00;;;;;;;12.80;4.18;;;10.90;99.90;;;;;;4971887;28;20538;-79
2024/03/28 01:08:27;;;;;;;9.98;5.40;;;10.90;99.90;;;;;;4972571;28;20030;-79
2024/03/28 01:10:52;;;;;;;9.82;5.00;;;11.00;99.90;;;;;;4970739;28;20477;-79
2024/03/28 01:13:18;;;;;;;9.27;4.30;;;10.90;99.90;;;;;;4970810;28;20091;-79
2024/03/28 01:15:44;;;;;;;9.00;4.70;;;10.90;99.90;;;;;;4970864;28;20077;-79
2024/03/28 01:18:10;;;;;;;13.52;4.28;;;10.90;99.90;;;;;;4971101;28;20374;-79
2024/03/28 01:20:36;;;;;;;11.68;4.28;;;10.90;99.90;;;;;;4972903;28;20030;-79
2024/03/28 01:23:02;;;;;;;14.35;4.68;;;10.90;99.90;;;;;;4974751;28;20027;-79
2024/03/28 01:25:28;;;;;;;7.60;4.07;;;10.90;99.90;;;;;;4975842;28;20027;-79
2024/03/28 01:27:54;;;;;;;13.55;4.10;;;10.90;99.90;;;;;;4975854;28;20023;-78
2024/03/28 01:30:20;;;;;;;11.52;4.00;;;10.80;99.90;;;;;;4974663;28;20023;-79
2024/03/28 01:32:45;;;;;;;10.48;4.13;;;10.80;99.90;;;;;;4974505;28;20501;-79
2024/03/28 01:35:11;;;;;;;13.68;4.28;;;10.80;99.90;;;;;;4974291;28;20032;-79
2024/03/28 01:37:37;;;;;;;12.75;4.60;;;10.80;99.90;;;;;;4975913;28;20102;-79
2024/03/28 01:40:03;;;;;;;10.13;3.55;;;10.80;99.90;;;;;;4972949;28;20015;-79
2024/03/28 01:42:29;;;;;;;14.77;5.32;;;10.80;99.90;;;;;;4975712;28;20019;-79
2024/03/28 01:44:55;;;;;;;11.10;4.63;;;10.80;99.90;;;;;;4974195;28;20388;-79
2024/03/28 01:47:21;;;;;;;8.38;4.18;;;10.80;99.90;;;;;;4975325;28;20070;-79
2024/03/28 01:49:47;;;;;;;12.07;4.63;;;10.80;99.90;;;;;;4972985;28;20026;-79
2024/03/28 01:52:14;;;;;;;12.57;5.05;;;10.80;99.90;;;;;;4974055;28;20090;-79
2024/03/28 01:54:40;;;;;;;10.13;4.22;;;10.90;99.90;;;;;;4974144;28;20020;-79
2024/03/28 01:57:11;;;;;;;14.93;4.45;;;10.90;99.90;;;;;;4973964;28;20019;-78
2024/03/28 01:59:38;;;;;;;14.57;4.97;;;10.90;99.90;;;;;;4975409;28;20034;-79
2024/03/28 02:02:05;;;;;;;18.15;6.63;;;10.90;99.90;;;;;;4972075;28;20034;-78
2024/03/28 02:04:31;;;;;;;11.55;4.93;;;10.90;99.90;;;;;;4990211;28;20057;-79
2024/03/28 02:06:56;;;;;;;16.63;4.85;;;11.00;99.90;;;;;;4973875;28;20073;-79
2024/03/28 02:09:25;;;;;;;11.30;5.25;;;11.00;99.90;;;;;;4973936;28;20451;-79
2024/03/28 02:11:54;;;;;;;12.55;5.22;;;11.00;99.90;;;;;;4989900;28;20472;-79
2024/03/28 02:14:20;;;;;;;12.55;5.07;;;11.00;99.90;;;;;;4973836;28;20113;-79
2024/03/28 02:16:46;;;;;;;15.20;4.93;;;11.00;99.90;;;;;;4987248;28;20543;-79
2024/03/28 02:19:12;;;;;;;15.95;5.43;;;11.00;99.90;;;;;;4994549;28;20076;-79
2024/03/28 02:21:37;;;;;;;15.13;5.47;;;11.00;99.90;;;;;;4976936;28;20027;-79
2024/03/28 02:24:03;;;;;;;13.20;4.68;;;11.00;99.90;;;;;;4976789;28;20396;-79
2024/03/28 02:26:29;;;;;;;16.00;4.75;;;11.00;99.90;;;;;;4994117;28;20064;-80
2024/03/28 02:28:54;;;;;;;14.55;5.15;;;11.00;99.90;;;;;;4976708;28;20031;-79
2024/03/28 02:31:20;;;;;;;10.27;4.57;;;11.00;99.90;;;;;;4975596;28;20031;-78
2024/03/28 02:33:46;;;;;;;13.02;4.75;;;11.00;99.90;;;;;;4976570;28;20025;-78
2024/03/28 02:36:12;;;;;;;16.38;4.63;;;11.00;99.90;;;;;;4994022;28;20113;-79
2024/03/28 02:38:37;;;;;;;13.25;4.88;;;11.00;99.90;;;;;;4976298;28;20043;-79
2024/03/28 02:41:03;;;;;;;18.27;5.38;;;11.00;99.90;;;;;;4976546;28;20499;-79
2024/03/28 02:43:30;;;;;;;17.90;5.38;;;11.00;99.90;;;;;;4976400;28;20026;-79
2024/03/28 02:45:56;;;;;;;16.95;5.65;;;11.00;99.90;;;;;;4976453;28;20042;-79
2024/03/28 02:48:22;;;;;;;25.55;7.10;;;11.00;99.90;;;;;;4976196;28;20033;-79
2024/03/28 02:50:48;;;;;;;20.63;5.47;;;11.00;99.90;;;;;;4976589;28;20022;-80
2024/03/28 02:53:13;;;;;;;13.73;5.15;;;11.00;99.90;;;;;;4993484;28;20093;-79
2024/03/28 02:55:39;;;;;;;13.40;4.90;;;11.00;99.90;;;;;;4993883;28;20058;-80
2024/03/28 02:58:05;;;;;;;12.18;5.95;;;11.00;99.90;;;;;;4976131;28;20029;-79
2024/03/28 03:00:31;;;;;;;15.70;5.00;;;11.10;99.90;;;;;;4976388;28;20021;-80
2024/03/28 03:02:58;;;;;;;18.67;5.88;;;11.00;99.90;;;;;;4993395;28;20031;-79
2024/03/28 03:05:25;;;;;;;18.58;5.13;;;11.00;99.90;;;;;;4976097;28;20018;-79
2024/03/28 03:07:50;;;;;;;17.83;4.90;;;10.90;99.90;;;;;;4976014;28;20057;-79
2024/03/28 03:10:16;;;;;;;12.93;4.80;;;11.00;99.90;;;;;;4976004;28;20053;-79
2024/03/28 03:12:42;;;;;;;14.02;5.60;;;10.90;99.90;;;;;;4975943;28;20113;-79
2024/03/28 03:15:09;;;;;;;16.67;5.80;;;10.90;99.90;;;;;;4975813;28;20031;-79
2024/03/28 03:17:35;;;;;;;26.55;5.43;;;10.80;99.90;;;;;;4976028;28;20047;-79
2024/03/28 03:20:07;;;;;;;14.68;5.00;;;10.80;99.90;;;;;;4975550;28;20061;-79
2024/03/28 03:22:37;;;;;;;16.02;6.28;;;10.80;99.90;;;;;;4976003;28;20073;-79
2024/03/28 03:25:11;;;;;;;18.20;6.20;;;10.80;99.90;;;;;;4993285;28;20023;-80
2024/03/28 03:34:34;;;;;;;20.38;5.82;;;10.80;99.90;;;;;;4975783;28;20037;-80
2024/03/28 03:35:52;;;;;;;21.33;5.65;;;10.80;99.90;;;;;;4993295;28;20518;-80
2024/03/28 03:38:18;;;;;;;22.67;6.15;;;10.80;99.90;;;;;;4975563;28;20022;-79
2024/03/28 03:40:44;;;;;;;15.95;6.50;;;10.80;99.90;;;;;;4975288;28;20018;-80
2024/03/28 03:43:09;;;;;;;21.58;7.18;;;10.80;99.90;;;;;;4975363;28;20499;-80
2024/03/28 03:45:35;;;;;;;19.83;6.22;;;10.80;99.90;;;;;;4992618;28;20058;-80
2024/03/28 03:48:00;;;;;;;27.15;8.25;;;10.80;99.90;;;;;;4975370;28;20424;-79
2024/03/28 03:50:26;;;;;;;32.53;8.32;;;10.80;99.90;;;;;;4974897;28;20038;-79
2024/03/28 03:52:51;;;;;;;22.10;6.90;;;10.80;99.90;;;;;;4992863;28;20077;-79
2024/03/28 03:55:17;;;;;;;25.75;6.90;;;10.80;99.90;;;;;;4991412;28;20033;-79
2024/03/28 03:57:43;;;;;;;24.75;7.72;;;10.90;99.90;;;;;;4975356;28;20431;-79
2024/03/28 04:00:10;;;;;;;27.08;7.13;;;10.80;99.90;;;;;;4974916;28;20026;-79
2024/03/28 04:02:35;;;;;;;26.75;6.70;;;10.90;99.90;;;;;;4975340;28;20927;-79
2024/03/28 04:05:01;;;;;;;24.60;7.43;;;10.90;99.90;;;;;;4974902;28;20109;-79
2024/03/28 04:07:26;;;;;;;23.80;6.80;;;10.90;99.90;;;;;;4975434;28;20030;-79
2024/03/28 04:09:53;;;;;;;24.52;8.10;;;10.90;99.90;;;;;;4992212;28;20377;-80
2024/03/28 04:12:19;;;;;;;29.92;8.73;;;10.90;99.90;;;;;;4992277;28;20191;-80
2024/03/28 04:14:45;;;;;;;22.30;6.40;;;10.90;99.90;;;;;;4992308;28;20088;-80
2024/03/28 04:17:11;;;;;;;22.52;7.57;;;10.90;99.90;;;;;;4974996;28;20049;-80
2024/03/28 04:19:37;;;;;;;30.52;8.02;;;10.90;99.90;;;;;;4974766;28;20018;-79
2024/03/28 04:22:03;;;;;;;22.80;8.02;;;10.90;99.90;;;;;;4974409;28;20054;-79
2024/03/28 04:24:28;;;;;;;34.17;7.88;;;10.90;99.90;;;;;;4992182;28;20447;-79
2024/03/28 04:26:54;;;;;;;30.08;7.10;;;10.90;99.90;;;;;;4992242;28;20038;-80
2024/03/28 04:29:20;;;;;;;37.63;8.88;;;10.90;99.90;;;;;;4974606;28;20018;-79
2024/03/28 04:31:46;;;;;;;25.98;8.18;;;10.80;99.90;;;;;;4974681;28;20026;-80
2024/03/28 04:34:12;;;;;;;37.67;7.82;;;10.90;99.90;;;;;;4992010;28;20097;-79
2024/03/28 04:36:38;;;;;;;24.00;7.60;;;10.90;99.90;;;;;;4992069;28;20018;-79
2024/03/28 04:39:04;;;;;;;29.60;8.35;;;10.90;99.90;;;;;;4974484;28;20121;-79
2024/03/28 04:41:30;;;;;;;33.25;7.50;;;10.90;99.90;;;;;;4992368;28;20423;-79
2024/03/28 04:43:57;;;;;;;33.95;10.27;;;10.90;99.90;;;;;;4974644;28;20041;-79
2024/03/28 04:46:22;;;;;;;26.70;8.00;;;10.90;99.90;;;;;;4974183;28;20644;-79
2024/03/28 04:48:48;;;;;;;42.53;8.82;;;10.90;99.90;;;;;;4974636;28;20026;-79
2024/03/28 04:51:15;;;;;;;24.25;7.68;;;10.80;99.90;;;;;;4974332;28;20508;-79
2024/03/28 04:53:40;;;;;;;36.50;7.88;;;10.80;99.90;;;;;;4974307;28;20022;-79
2024/03/28 04:56:06;;;;;;;46.60;10.07;;;10.80;99.90;;;;;;4977072;28;20018;-79
2024/03/28 04:58:31;;;;;;;31.40;9.05;;;10.70;99.90;;;;;;4978736;28;20031;-79
2024/03/28 05:00:57;;;;;;;30.08;9.30;;;10.70;99.90;;;;;;4995793;28;20443;-79
2024/03/28 05:03:23;;;;;;;34.15;8.10;;;10.70;99.90;;;;;;4978612;28;20113;-79
2024/03/28 05:05:48;;;;;;;30.33;8.10;;;10.70;99.90;;;;;;4995708;28;20077;-79
2024/03/28 05:08:16;;;;;;;38.30;10.52;;;10.70;99.90;;;;;;4995536;28;20068;-79
2024/03/28 05:10:42;;;;;;;34.33;10.00;;;10.70;99.90;;;;;;4994570;28;20041;-79
2024/03/28 05:13:07;;;;;;;32.92;7.72;;;10.80;99.90;;;;;;4977858;28;20023;-80
2024/03/28 05:15:33;;;;;;;45.45;9.68;;;10.80;99.90;;;;;;4995340;28;20053;-79
2024/03/28 05:17:59;;;;;;;27.08;8.10;;;10.80;99.90;;;;;;4994191;28;20018;-79
2024/03/28 05:20:24;;;;;;;36.38;8.98;;;10.90;99.90;;;;;;4977968;28;20522;-80
2024/03/28 05:22:50;;;;;;;34.70;8.48;;;10.90;99.90;;;;;;4978230;28;20017;-79
2024/03/28 05:25:16;;;;;;;37.35;8.88;;;10.90;99.90;;;;;;4977794;28;20026;-79
2024/03/28 05:27:42;;;;;;;41.95;9.13;;;10.90;99.90;;;;;;4977951;28;20022;-79
2024/03/28 05:30:08;;;;;;;20.63;7.97;;;10.90;99.90;;;;;;4995353;28;20027;-80
2024/03/28 05:32:34;;;;;;;34.97;10.07;;;10.90;99.90;;;;;;4977734;28;20461;-79
2024/03/28 05:34:59;;;;;;;30.38;9.13;;;10.90;99.90;;;;;;4995426;28;20102;-79
2024/03/28 05:37:26;;;;;;;37.65;9.25;;;10.90;99.90;;;;;;4977401;28;20021;-79
2024/03/28 05:39:52;;;;;;;34.13;8.88;;;10.90;99.90;;;;;;4968798;28;20037;-80
2024/03/28 05:42:18;;;;;;;35.53;10.32;;;11.00;99.90;;;;;;4994888;28;20031;-79
2024/03/28 05:44:43;;;;;;;32.75;10.32;;;11.00;99.90;;;;;;4977207;28;20444;-79
2024/03/28 05:47:09;;;;;;;42.40;9.43;;;11.10;99.90;;;;;;4977410;28;20030;-80
2024/03/28 05:49:34;;;;;;;38.28;9.85;;;11.10;99.90;;;;;;4977547;28;20026;-80
2024/03/28 05:52:00;;;;;;;38.45;9.32;;;11.10;99.90;;;;;;4976602;28;20022;-80
2024/03/28 05:54:26;;;;;;;37.00;8.48;;;11.20;99.90;;;;;;4993836;28;20400;-79
2024/03/28 05:56:52;;;;;;;39.83;8.75;;;11.20;99.90;;;;;;4977295;28;20019;-80
2024/03/28 05:59:18;;;;;;;35.55;9.38;;;11.30;99.90;;;;;;4977454;28;20109;-79
2024/03/28 06:01:43;;;;;;;37.13;11.52;;;11.30;99.90;;;;;;4976421;28;20030;-79
2024/03/28 06:04:09;;;;;;;34.08;9.80;;;11.30;99.90;;;;;;4977238;28;20109;-79
2024/03/28 06:06:34;;;;;;;46.17;11.35;;;11.40;99.90;;;;;;4976606;28;20164;-79
2024/03/28 06:09:00;;;;;;;47.05;10.32;;;11.50;99.90;;;;;;4994308;28;20027;-78
2024/03/28 06:11:26;;;;;;;36.47;9.65;;;11.50;99.90;;;;;;4976667;28;20026;-79
2024/03/28 06:13:55;;;;;;;39.75;9.02;;;11.50;99.90;;;;;;4977170;28;20035;-79
2024/03/28 06:16:20;;;;;;;33.17;10.80;;;11.60;99.90;;;;;;4976417;28;20074;-80
2024/03/28 06:18:46;;;;;;;39.58;11.05;;;11.60;99.90;;;;;;4976963;28;20429;-79
2024/03/28 06:21:12;;;;;;;38.03;9.30;;;11.70;99.90;;;;;;4976730;28;20022;-79
2024/03/28 06:23:37;;;;;;;40.97;10.23;;;11.70;99.90;;;;;;4976687;28;20101;-78
2024/03/28 06:26:03;;;;;;;27.42;8.15;;;11.80;99.90;;;;;;4993467;28;20092;-79
2024/03/28 06:28:30;;;;;;;42.00;10.93;;;11.90;99.90;;;;;;4992804;28;20022;-79
2024/03/28 06:30:59;;;;;;;45.00;11.05;;;11.90;99.90;;;;;;4992959;28;20105;-79
2024/03/28 06:33:28;;;;;;;50.03;11.73;;;12.00;99.90;;;;;;4976760;28;20587;-79
2024/03/28 06:35:55;;;;;;;37.38;11.18;;;12.20;99.90;;;;;;4975275;28;20030;-79
2024/03/28 06:38:21;;;;;;;31.13;9.23;;;12.20;99.90;;;;;;4975993;28;20018;-79
2024/03/28 06:40:46;;;;;;;30.40;8.35;;;12.40;99.90;;;;;;4975697;28;20122;-78
2024/03/28 06:43:14;;;;;;;38.63;10.60;;;12.50;99.90;;;;;;4975997;28;20081;-79
2024/03/28 06:45:40;;;;;;;44.00;9.35;;;12.60;99.90;;;;;;4976226;28;20030;-79
2024/03/28 06:48:06;;;;;;;39.92;10.70;;;12.70;99.90;;;;;;4975464;28;20384;-79
2024/03/28 06:50:32;;;;;;;38.83;9.35;;;12.70;99.90;;;;;;4976253;28;20018;-79
2024/03/28 06:52:58;;;;;;;29.30;9.20;;;12.80;99.90;;;;;;4976068;28;20029;-79
2024/03/28 06:55:26;;;;;;;43.47;10.82;;;12.80;99.20;;;;;;4976123;28;20099;-79
2024/03/28 06:57:53;;;;;;;36.95;9.27;;;12.90;99.10;;;;;;4993368;28;20029;-79
2024/03/28 07:00:19;;;;;;;35.83;9.40;;;13.00;97.70;;;;;;4975692;28;20022;-79
2024/03/28 07:02:45;;;;;;;41.85;10.93;;;13.00;97.50;;;;;;4976207;28;20026;-80
2024/03/28 07:05:10;;;;;;;34.83;9.57;;;13.10;97.50;;;;;;4993676;28;20432;-79
2024/03/28 07:07:36;;;;;;;43.80;10.52;;;13.10;97.30;;;;;;4993097;28;20037;-78
2024/03/28 07:10:02;;;;;;;35.33;8.88;;;13.10;97.50;;;;;;4974533;28;20041;-78
2024/03/28 07:12:27;;;;;;;34.58;10.63;;;13.10;97.30;;;;;;4974880;28;20471;-79
2024/03/28 07:14:53;;;;;;;31.75;9.85;;;13.10;97.70;;;;;;4984523;28;20084;-80
2024/03/28 07:17:19;;;;;;;37.10;10.55;;;13.10;98.30;;;;;;4975777;28;20133;-80
2024/03/28 07:19:45;;;;;;;38.90;9.75;;;13.10;99.20;;;;;;4993597;28;20392;-79
2024/03/28 07:22:11;;;;;;;39.75;9.63;;;13.10;99.90;;;;;;4976304;28;20030;-79
2024/03/28 07:24:37;;;;;;;41.97;9.85;;;13.10;99.20;;;;;;4976181;28;20116;-78
2024/03/28 07:27:03;;;;;;;38.70;10.57;;;13.10;98.70;;;;;;4975773;28;20065;-79
2024/03/28 07:29:29;;;;;;;39.42;9.80;;;13.10;98.80;;;;;;4958058;28;20023;-78
2024/03/28 07:31:55;;;;;;;34.10;9.43;;;13.10;99.90;;;;;;4973915;28;20022;-78
2024/03/28 07:34:20;;;;;;;30.73;8.90;;;13.10;99.90;;;;;;4974210;28;20022;-79
2024/03/28 07:36:46;;;;;;;37.38;9.55;;;13.10;99.90;;;;;;4973547;28;20124;-79
2024/03/28 07:39:14;;;;;;;31.38;7.95;;;13.20;99.90;;;;;;4977714;28;20030;-79
2024/03/28 07:41:42;;;;;;;41.70;10.05;;;13.20;99.90;;;;;;4974182;28;20022;-79
2024/03/28 07:44:08;;;;;;;33.55;9.43;;;13.20;99.90;;;;;;4975090;28;20030;-79
2024/03/28 07:46:34;;;;;;;32.80;8.77;;;13.30;99.90;;;;;;4975582;28;20033;-79
2024/03/28 07:49:00;;;;;;;29.30;9.25;;;13.30;99.90;;;;;;4993144;28;20388;-79
2024/03/28 07:51:26;;;;;;;48.05;11.02;;;13.40;99.90;;;;;;4988277;28;20121;-79
2024/03/28 07:53:52;;;;;;;35.55;8.95;;;13.40;99.90;;;;;;4967917;28;20564;-79
2024/03/28 07:56:21;;;;;;;30.88;10.43;;;13.40;99.90;;;;;;4970731;28;20070;-78
2024/03/28 07:58:47;;;;;;;33.03;9.70;;;13.50;99.40;;;;;;4992854;28;20025;-79
2024/03/28 08:01:12;;;;;;;36.83;9.18;;;13.50;99.60;;;;;;4972924;28;20030;-78
2024/03/28 08:03:38;;;;;;;30.40;8.48;;;13.50;98.30;;;;;;4975258;28;20476;-78
2024/03/28 08:06:05;;;;;;;29.45;8.75;;;13.50;97.60;;;;;;4992179;28;20097;-79
2024/03/28 08:08:31;;;;;;;23.63;7.88;;;13.50;97.20;;;;;;4974659;28;20094;-78
2024/03/28 08:10:58;;;;;;;31.63;8.50;;;13.40;96.50;;;;;;4972218;28;20030;-78
2024/03/28 08:13:24;;;;;;;30.75;8.13;;;13.40;96.50;;;;;;4974257;28;20038;-78
2024/03/28 08:15:49;;;;;;;24.80;7.20;;;13.40;98.20;;;;;;4971245;28;20050;-78
2024/03/28 08:18:16;;;;;;;25.27;7.95;;;13.40;99.30;;;;;;4971618;28;20030;-79
2024/03/28 08:20:43;;;;;;;26.17;8.80;;;13.40;99.90;;;;;;4973316;28;20015;-78
2024/03/28 08:23:09;;;;;;;25.13;7.00;;;13.40;99.90;;;;;;4972549;28;20029;-77
2024/03/28 08:25:34;;;;;;;24.42;7.20;;;13.40;99.90;;;;;;4971188;28;20113;-78
2024/03/28 08:28:00;;;;;;;28.08;8.23;;;13.30;99.90;;;;;;4971179;28;20047;-78
2024/03/28 08:30:26;;;;;;;17.17;7.03;;;13.30;99.90;;;;;;4970610;28;20027;-77
2024/03/28 08:32:55;;;;;;;14.98;5.30;;;13.30;99.90;;;;;;4972902;28;20061;-79
2024/03/28 08:35:21;;;;;;;14.05;6.63;;;13.30;99.90;;;;;;4971438;28;20038;-79
2024/03/28 08:37:47;;;;;;;25.77;9.38;;;13.30;99.90;;;;;;4973360;28;20022;-79
2024/03/28 08:40:12;;;;;;;21.38;8.68;;;13.30;99.90;;;;;;4971598;28;20030;-78
2024/03/28 08:42:39;;;;;;;14.63;4.95;;;13.30;99.90;;;;;;4971540;28;20023;-79
2024/03/28 08:45:08;;;;;;;15.07;5.07;;;13.40;99.90;;;;;;4971021;28;20034;-80
2024/03/28 08:47:35;;;;;;;15.50;5.25;;;13.40;99.90;;;;;;4970927;28;20122;-79
2024/03/28 08:50:03;;;;;;;11.90;4.50;;;13.40;99.90;;;;;;4972750;28;20130;-78
2024/03/28 08:52:29;;;;;;;13.82;4.20;;;13.40;99.90;;;;;;4973125;28;20015;-78
2024/03/28 08:54:56;;;;;;;7.40;3.03;;;13.40;99.90;;;;;;4969213;28;20441;-78
2024/03/28 08:57:22;;;;;;;8.63;3.15;;;13.30;99.70;;;;;;4972773;28;20433;-78
2024/03/28 08:59:47;;;;;;;7.90;2.70;;;13.30;97.30;;;;;;4970566;28;20014;-78
2024/03/28 09:02:14;;;;;;;6.07;2.80;;;13.40;96.60;;;;;;4969748;28;20084;-78
2024/03/28 09:04:40;;;;;;;6.95;3.00;;;13.50;94.20;;;;;;4969856;28;20031;-78
2024/03/28 09:07:06;;;;;;;5.50;2.28;;;13.60;95.70;;;;;;4972870;28;20043;-78
2024/03/28 09:09:32;;;;;;;5.93;2.45;;;13.80;93.40;;;;;;4940460;28;20038;-78
2024/03/28 09:11:58;;;;;;;5.10;1.65;;;14.10;93.40;;;;;;4972441;28;20050;-77
2024/03/28 09:14:24;;;;;;;4.75;1.40;;;14.30;85.70;;;;;;4970839;28;20812;-77
2024/03/28 09:16:49;;;;;;;2.13;1.15;;;14.30;81.40;;;;;;4970864;28;20067;-78
2024/03/28 09:19:15;;;;;;;5.32;1.50;;;14.40;79.40;;;;;;4935336;28;20492;-78
2024/03/28 09:21:40;;;;;;;4.72;1.70;;;14.50;79.10;;;;;;4971024;28;20074;-77
2024/03/28 09:24:09;;;;;;;4.25;0.98;;;14.50;77.20;;;;;;4969054;28;20034;-78
2024/03/28 09:26:35;;;;;;;3.75;1.17;;;14.50;76.40;;;;;;4969237;28;20123;-78
2024/03/28 09:29:00;;;;;;;3.42;1.15;;;14.60;76.40;;;;;;4970455;28;20102;-78
2024/03/28 09:31:27;;;;;;;4.95;2.13;;;14.80;76.60;;;;;;4970952;28;20469;-78
2024/03/28 09:33:53;;;;;;;4.80;2.70;;;14.80;74.10;;;;;;4968607;28;20058;-77
2024/03/28 09:36:19;;;;;;;4.95;1.65;;;15.20;73.00;;;;;;4970572;28;20047;-77
2024/03/28 09:38:50;;;;;;;3.63;1.55;;;15.50;70.00;;;;;;4969020;28;20062;-76
2024/03/28 09:41:27;;;;;;;3.92;1.20;;;15.80;68.50;;;;;;4971821;28;20040;-76
2024/03/28 09:44:10;;;;;;;4.03;1.63;;;16.00;64.80;;;;;;4974446;28;20046;-76
2024/03/28 09:46:36;;;;;;;2.15;1.55;;;16.20;64.80;;;;;;4975151;28;20514;-76
2024/03/28 09:49:02;;;;;;;2.03;1.25;;;16.30;61.80;;;;;;4974007;28;20114;-75
2024/03/28 09:51:30;;;;;;;4.47;1.20;;;16.30;61.00;;;;;;4974116;28;20035;-77
2024/03/28 09:53:58;;;;;;;4.35;0.90;;;16.20;60.00;;;;;;4974578;28;20054;-76
2024/03/28 09:56:25;;;;;;;3.38;1.20;;;16.20;59.00;;;;;;4973206;28;20031;-76
2024/03/28 09:58:51;;;;;;;3.97;0.80;;;16.20;58.60;;;;;;4973735;28;20027;-76
2024/03/28 10:01:17;;;;;;;2.88;0.80;;;15.90;57.90;;;;;;4973844;28;20039;-76
2024/03/28 10:03:50;;;;;;;4.15;1.25;;;15.90;58.50;;;;;;4973999;28;20027;-77
2024/03/28 10:06:16;;;;;;;8.75;0.95;;;16.10;58.80;;;;;;4973427;28;20038;-76
2024/03/28 10:08:42;;;;;;;5.15;0.90;;;16.30;58.60;;;;;;4974752;28;20025;-77
2024/03/28 10:11:09;;;;;;;3.55;1.15;;;16.50;57.80;;;;;;4972150;28;20110;-77
2024/03/28 10:13:36;;;;;;;3.75;0.88;;;16.50;57.70;;;;;;4975028;28;20081;-78
2024/03/28 10:16:04;;;;;;;1.60;0.70;;;16.20;57.50;;;;;;4972976;28;20496;-78
2024/03/28 10:18:31;;;;;;;2.72;0.90;;;16.10;57.90;;;;;;4972526;28;20047;-77
2024/03/28 10:20:57;;;;;;;3.47;1.13;;;15.90;59.60;;;;;;4969422;28;20481;-77
2024/03/28 10:23:23;;;;;;;6.57;1.17;;;15.50;60.20;;;;;;4972920;28;20408;-77
2024/03/28 10:25:53;;;;;;;7.45;1.20;;;15.20;61.60;;;;;;4968703;28;20042;-78
2024/03/28 10:28:30;;;;;;;3.75;1.45;;;15.10;63.90;;;;;;4970591;28;20034;-77
2024/03/28 10:30:59;;;;;;;7.35;1.40;;;15.00;65.30;;;;;;4950463;28;20046;-77
2024/03/28 10:33:25;;;;;;;3.90;1.40;;;15.10;65.40;;;;;;4972250;28;20042;-77
2024/03/28 10:35:57;;;;;;;5.78;0.75;;;15.20;66.40;;;;;;4970353;28;20031;-77
2024/03/28 10:38:23;;;;;;;2.70;1.15;;;15.00;65.00;;;;;;4972023;28;20504;-77
2024/03/28 10:40:50;;;;;;;3.72;0.82;;;15.00;66.20;;;;;;4971761;28;20031;-77
2024/03/28 10:43:17;;;;;;;3.45;1.02;;;14.60;65.40;;;;;;4970317;28;20027;-78
2024/03/28 10:45:44;;;;;;;2.22;0.50;;;14.70;66.40;;;;;;4971658;28;20031;-77
2024/03/28 10:48:15;;;;;;;1.85;0.60;;;14.70;66.40;;;;;;4971144;28;20770;-77
2024/03/28 10:51:02;;;;;;;1.35;0.70;;;14.60;65.10;;;;;;4972446;28;20511;-77
2024/03/28 10:53:43;;;;;;;1.45;0.98;;;14.90;65.30;;;;;;4969700;28;20049;-77
2024/03/28 10:56:13;;;;;;;1.00;0.70;;;15.30;65.50;;;;;;4970623;28;20035;-78
2024/03/28 10:58:40;;;;;;;0.70;0.68;;;15.20;63.20;;;;;;4971530;28;20396;-78
2024/03/28 11:01:08;;;;;;;2.03;0.50;;;15.30;62.90;;;;;;4971197;28;20063;-78
2024/03/28 11:03:34;;;;;;;2.08;0.50;;;15.40;63.80;;;;;;4970355;28;20034;-77
2024/03/28 11:06:00;;;;;;;1.40;0.45;;;15.40;61.80;;;;;;4971563;28;20062;-78
2024/03/28 11:08:31;;;;;;;5.47;0.82;;;15.40;61.30;;;;;;4971759;28;20041;-78
2024/03/28 11:11:05;;;;;;;8.98;1.15;;;15.10;61.00;;;;;;4968926;28;20680;-76
2024/03/28 11:13:32;;;;;;;4.93;1.02;;;14.90;61.10;;;;;;4969652;28;20090;-77
2024/03/28 11:16:05;;;;;;;5.18;1.58;;;14.40;61.90;;;;;;4967710;28;20042;-77
2024/03/28 11:18:32;;;;;;;3.13;0.80;;;14.50;63.50;;;;;;4965812;28;20027;-77
2024/03/28 11:20:59;;;;;;;1.25;0.75;;;14.50;64.00;;;;;;4972929;28;20030;-78
2024/03/28 11:23:25;;;;;;;1.58;0.68;;;14.50;63.90;;;;;;4971754;28;20102;-79
2024/03/28 11:26:07;;;;;;;1.75;0.60;;;14.60;63.70;;;;;;4971029;28;20043;-79
2024/03/28 11:28:39;;;;;;;3.65;0.88;;;14.60;63.30;;;;;;4971097;28;20114;-77
2024/03/28 11:31:06;;;;;;;4.85;0.50;;;15.10;64.10;;;;;;4970856;28;20031;-78
2024/03/28 11:33:38;;;;;;;0.68;0.40;;;15.50;64.80;;;;;;4972331;28;20034;-78
2024/03/28 11:36:05;;;;;;;4.25;0.68;;;15.60;62.20;;;;;;4963937;28;20039;-78
2024/03/28 11:38:33;;;;;;;1.98;0.47;;;15.50;61.70;;;;;;4971616;28;20014;-78
2024/03/28 11:40:59;;;;;;;0.80;0.57;;;15.40;62.10;;;;;;4969303;28;20109;-78
2024/03/28 11:43:25;;;;;;;3.08;1.02;;;15.10;62.00;;;;;;4970752;28;20082;-78
2024/03/28 11:45:55;;;;;;;1.75;0.80;;;15.00;62.20;;;;;;4969640;28;20051;-78
2024/03/28 11:48:22;;;;;;;1.95;0.60;;;14.90;63.10;;;;;;4972285;28;20035;-78
2024/03/28 11:50:49;;;;;;;2.53;0.60;;;14.80;62.90;;;;;;4971230;28;20058;-78
2024/03/28 11:53:15;;;;;;;2.08;0.82;;;14.70;62.60;;;;;;4971108;28;20366;-78
2024/03/28 11:55:42;;;;;;;3.08;0.70;;;14.80;62.40;;;;;;4971534;28;20125;-77
2024/03/28 11:58:20;;;;;;;4.57;0.70;;;14.70;61.90;;;;;;4970728;28;20047;-78
2024/03/28 12:00:46;;;;;;;0.73;0.70;;;15.00;62.80;;;;;;4972012;28;20118;-79
2024/03/28 12:03:13;;;;;;;2.80;0.50;;;15.00;62.50;;;;;;4971059;28;20377;-79
2024/03/28 12:05:39;;;;;;;3.08;0.85;;;15.00;61.40;;;;;;4971292;28;20436;-78
2024/03/28 12:08:07;;;;;;;1.17;0.65;;;14.90;61.50;;;;;;4970235;28;20039;-78
2024/03/28 12:10:34;;;;;;;1.98;0.60;;;15.00;61.30;;;;;;4969651;28;20042;-78
2024/03/28 12:13:07;;;;;;;4.38;0.57;;;15.10;61.90;;;;;;4970063;28;20034;-78
2024/03/28 12:15:33;;;;;;;3.00;0.50;;;15.00;61.30;;;;;;4974452;28;20805;-77
2024/03/28 12:17:58;;;;;;;1.85;0.70;;;14.90;61.00;;;;;;4973907;28;20073;-78
2024/03/28 12:20:24;;;;;;;0.85;0.60;;;14.70;60.90;;;;;;4973810;28;20041;-78
2024/03/28 12:22:54;;;;;;;1.85;0.60;;;14.50;61.30;;;;;;4989455;28;20031;-78
2024/03/28 12:25:21;;;;;;;1.55;0.65;;;14.40;62.50;;;;;;4972737;28;20034;-78
2024/03/28 12:28:00;;;;;;;3.20;0.90;;;14.40;62.50;;;;;;4973106;28;20089;-77
2024/03/28 12:30:27;;;;;;;2.80;0.80;;;14.70;63.30;;;;;;4991317;28;20030;-78
2024/03/28 12:33:05;;;;;;;1.25;0.50;;;14.70;62.10;;;;;;4973974;28;20015;-77
2024/03/28 12:35:32;;;;;;;3.25;0.90;;;14.60;61.10;;;;;;4973823;28;20029;-79
2024/03/28 12:38:01;;;;;;;2.97;0.45;;;14.80;61.70;;;;;;4973213;28;20034;-78
2024/03/28 12:40:27;;;;;;;1.95;0.70;;;14.90;61.60;;;;;;4972190;28;20488;-78
2024/03/28 12:42:53;;;;;;;2.63;0.90;;;14.80;60.30;;;;;;4990768;28;20500;-78